sensor_id;sensor_type;location;lat;lon;timestamp;temperature;humidity
12119;DHT22;6123;48.864;9.200;2024-02-16T00:00:23;11.30;99.90
12119;DHT22;6123;48.864;9.200;2024-02-16T00:02:49;11.40;99.90
12119;DHT22;6123;48.864;9.200;2024-02-16T00:05:14;11.30;99.90
12119;DHT22;6123;48.864;9.200;2024-02-16T00:07:40;11.30;99.90
12119;DHT22;6123;48.864;9.200;2024-02-16T00:10:06;11.30;99.90
12119;DHT22;6123;48.864;9.200;2024-02-16T00:12:33;11.20;99.90
12119;DHT22;6123;48.864;9.200;2024-02-16T00:14:59;11.20;99.90
12119;DHT22;6123;48.864;9.200;2024-02-16T00:17:25;11.20;99.90
12119;DHT22;6123;48.864;9.200;2024-02-16T00:19:55;11.10;99.90
12119;DHT22;6123;48.864;9.200;2024-02-16T00:22:21;11.20;99.90
12119;DHT22;6123;48.864;9.200;2024-02-16T00:24:47;11.10;99.90
12119;DHT22;6123;48.864;9.200;2024-02-16T00:27:14;11.10;99.90
12119;DHT22;6123;48.864;9.200;2024-02-16T00:29:40;11.10;99.90
12119;DHT22;6123;48.864;9.200;2024-02-16T00:32:06;11.10;99.90
12119;DHT22;6123;48.864;9.200;2024-02-16T00:34:33;11.00;99.90
12119;DHT22;6123;48.864;9.200;2024-02-16T00:36:59;11.10;99.90
12119;DHT22;6123;48.864;9.200;2024-02-16T00:39:25;11.10;99.90
12119;DHT22;6123;48.864;9.200;2024-02-16T00:41:51;11.10;99.90
12119;DHT22;6123;48.864;9.200;2024-02-16T00:44:16;11.00;99.90
12119;DHT22;6123;48.864;9.200;2024-02-16T00:46:43;11.10;99.90
12119;DHT22;6123;48.864;9.200;2024-02-16T00:49:09;11.00;99.90
12119;DHT22;6123;48.864;9.200;2024-02-16T00:51:36;11.10;99.90
12119;DHT22;6123;48.864;9.200;2024-02-16T00:54:02;11.20;99.90
12119;DHT22;6123;48.864;9.200;2024-02-16T00:56:29;11.20;99.90
12119;DHT22;6123;48.864;9.200;2024-02-16T00:58:55;11.10;99.90
12119;DHT22;6123;48.864;9.200;2024-02-16T01:01:21;11.10;99.90
12119;DHT22;6123;48.864;9.200;2024-02-16T01:03:48;11.00;99.90
12119;DHT22;6123;48.864;9.200;2024-02-16T01:06:15;11.00;99.90
12119;DHT22;6123;48.864;9.200;2024-02-16T01:08:40;10.80;99.90
12119;DHT22;6123;48.864;9.200;2024-02-16T01:11:06;10.70;99.90
12119;DHT22;6123;48.864;9.200;2024-02-16T01:13:32;10.70;99.90
12119;DHT22;6123;48.864;9.200;2024-02-16T01:15:58;10.60;99.90
12119;DHT22;6123;48.864;9.200;2024-02-16T01:18:24;10.60;99.90
12119;DHT22;6123;48.864;9.200;2024-02-16T01:20:50;10.70;99.90
12119;DHT22;6123;48.864;9.200;2024-02-16T01:23:16;10.70;99.90
12119;DHT22;6123;48.864;9.200;2024-02-16T01:25:42;10.60;99.90
12119;DHT22;6123;48.864;9.200;2024-02-16T01:28:07;10.70;99.90
12119;DHT22;6123;48.864;9.200;2024-02-16T01:30:33;10.60;99.90
12119;DHT22;6123;48.864;9.200;2024-02-16T01:32:58;10.70;99.90
12119;DHT22;6123;48.864;9.200;2024-02-16T01:35:24;10.70;99.90
12119;DHT22;6123;48.864;9.200;2024-02-16T01:37:49;10.70;99.90
12119;DHT22;6123;48.864;9.200;2024-02-16T01:40:15;10.70;99.90
12119;DHT22;6123;48.864;9.200;2024-02-16T01:42:43;10.70;99.90
12119;DHT22;6123;48.864;9.200;2024-02-16T01:45:10;10.70;99.90
12119;DHT22;6123;48.864;9.200;2024-02-16T01:47:36;10.70;99.90
12119;DHT22;6123;48.864;9.200;2024-02-16T01:50:02;10.80;99.90
12119;DHT22;6123;48.864;9.200;2024-02-16T01:52:29;10.80;99.90
12119;DHT22;6123;48.864;9.200;2024-02-16T01:54:56;10.70;99.90
12119;DHT22;6123;48.864;9.200;2024-02-16T01:57:24;10.60;99.90
12119;DHT22;6123;48.864;9.200;2024-02-16T01:59:49;10.70;99.90
12119;DHT22;6123;48.864;9.200;2024-02-16T02:02:15;10.50;99.90
12119;DHT22;6123;48.864;9.200;2024-02-16T02:04:41;10.40;99.90
12119;DHT22;6123;48.864;9.200;2024-02-16T02:07:16;10.40;99.90
12119;DHT22;6123;48.864;9.200;2024-02-16T02:09:42;10.40;99.90
12119;DHT22;6123;48.864;9.200;2024-02-16T02:12:09;10.30;99.90
12119;DHT22;6123;48.864;9.200;2024-02-16T02:14:35;10.30;99.90
12119;DHT22;6123;48.864;9.200;2024-02-16T02:17:02;10.40;99.90
12119;DHT22;6123;48.864;9.200;2024-02-16T02:19:27;10.40;99.90
12119;DHT22;6123;48.864;9.200;2024-02-16T02:21:54;10.30;99.90
12119;DHT22;6123;48.864;9.200;2024-02-16T02:24:20;10.40;99.90
12119;DHT22;6123;48.864;9.200;2024-02-16T02:26:46;10.40;99.90
12119;DHT22;6123;48.864;9.200;2024-02-16T02:29:11;10.40;99.90
12119;DHT22;6123;48.864;9.200;2024-02-16T02:31:37;10.30;99.90
12119;DHT22;6123;48.864;9.200;2024-02-16T02:34:02;10.30;99.90
12119;DHT22;6123;48.864;9.200;2024-02-16T02:36:30;10.40;99.90
12119;DHT22;6123;48.864;9.200;2024-02-16T02:38:56;10.40;99.90
12119;DHT22;6123;48.864;9.200;2024-02-16T02:41:23;10.40;99.90
12119;DHT22;6123;48.864;9.200;2024-02-16T02:43:48;10.50;99.90
12119;DHT22;6123;48.864;9.200;2024-02-16T02:46:15;10.50;99.90
12119;DHT22;6123;48.864;9.200;2024-02-16T02:48:43;10.50;99.90
12119;DHT22;6123;48.864;9.200;2024-02-16T02:51:09;10.40;99.90
12119;DHT22;6123;48.864;9.200;2024-02-16T02:53:35;10.40;99.90
12119;DHT22;6123;48.864;9.200;2024-02-16T02:56:01;10.40;99.90
12119;DHT22;6123;48.864;9.200;2024-02-16T02:58:27;10.40;99.90
12119;DHT22;6123;48.864;9.200;2024-02-16T03:00:53;10.50;99.90
12119;DHT22;6123;48.864;9.200;2024-02-16T03:03:20;10.40;99.90
12119;DHT22;6123;48.864;9.200;2024-02-16T03:05:45;10.40;99.90
12119;DHT22;6123;48.864;9.200;2024-02-16T03:08:11;10.40;99.90
12119;DHT22;6123;48.864;9.200;2024-02-16T03:10:37;10.40;99.90
12119;DHT22;6123;48.864;9.200;2024-02-16T03:13:03;10.40;99.90
12119;DHT22;6123;48.864;9.200;2024-02-16T03:15:29;10.40;99.90
12119;DHT22;6123;48.864;9.200;2024-02-16T03:17:55;10.40;99.90
12119;DHT22;6123;48.864;9.200;2024-02-16T03:20:20;10.30;99.90
12119;DHT22;6123;48.864;9.200;2024-02-16T03:22:47;10.30;99.90
12119;DHT22;6123;48.864;9.200;2024-02-16T03:25:13;10.20;99.90
12119;DHT22;6123;48.864;9.200;2024-02-16T03:27:38;10.20;99.90
12119;DHT22;6123;48.864;9.200;2024-02-16T03:30:05;10.20;99.90
12119;DHT22;6123;48.864;9.200;2024-02-16T03:32:31;10.20;99.90
12119;DHT22;6123;48.864;9.200;2024-02-16T03:34:57;10.20;99.90
12119;DHT22;6123;48.864;9.200;2024-02-16T03:37:24;10.10;99.90
12119;DHT22;6123;48.864;9.200;2024-02-16T03:39:50;10.10;99.90
12119;DHT22;6123;48.864;9.200;2024-02-16T03:42:16;10.20;99.90
12119;DHT22;6123;48.864;9.200;2024-02-16T03:44:43;10.20;99.90
12119;DHT22;6123;48.864;9.200;2024-02-16T03:47:09;10.30;99.90
12119;DHT22;6123;48.864;9.200;2024-02-16T03:49:35;10.30;99.90
12119;DHT22;6123;48.864;9.200;2024-02-16T03:52:01;10.30;99.90
12119;DHT22;6123;48.864;9.200;2024-02-16T03:54:27;10.20;99.90
12119;DHT22;6123;48.864;9.200;2024-02-16T03:56:54;10.10;99.90
12119;DHT22;6123;48.864;9.200;2024-02-16T03:59:19;10.10;99.90
12119;DHT22;6123;48.864;9.200;2024-02-16T04:01:45;10.10;99.90
12119;DHT22;6123;48.864;9.200;2024-02-16T04:04:11;10.10;99.90
12119;DHT22;6123;48.864;9.200;2024-02-16T04:06:38;10.10;99.90
12119;DHT22;6123;48.864;9.200;2024-02-16T04:09:04;10.10;99.90
12119;DHT22;6123;48.864;9.200;2024-02-16T04:11:33;10.00;99.90
12119;DHT22;6123;48.864;9.200;2024-02-16T04:13:59;10.00;99.90
12119;DHT22;6123;48.864;9.200;2024-02-16T04:16:25;10.00;99.90
12119;DHT22;6123;48.864;9.200;2024-02-16T04:18:52;10.10;99.90
12119;DHT22;6123;48.864;9.200;2024-02-16T04:21:18;10.20;99.90
12119;DHT22;6123;48.864;9.200;2024-02-16T04:23:44;10.20;99.90
12119;DHT22;6123;48.864;9.200;2024-02-16T04:26:09;10.20;99.90
12119;DHT22;6123;48.864;9.200;2024-02-16T04:28:36;10.20;99.90
12119;DHT22;6123;48.864;9.200;2024-02-16T04:31:02;10.20;99.90
12119;DHT22;6123;48.864;9.200;2024-02-16T04:33:28;10.20;99.90
12119;DHT22;6123;48.864;9.200;2024-02-16T04:35:53;10.30;99.90
12119;DHT22;6123;48.864;9.200;2024-02-16T04:38:19;10.30;99.90
12119;DHT22;6123;48.864;9.200;2024-02-16T04:40:45;10.30;99.90
12119;DHT22;6123;48.864;9.200;2024-02-16T04:43:11;10.30;99.90
12119;DHT22;6123;48.864;9.200;2024-02-16T04:45:36;10.30;99.90
12119;DHT22;6123;48.864;9.200;2024-02-16T04:48:06;10.30;99.90
12119;DHT22;6123;48.864;9.200;2024-02-16T04:50:32;10.30;99.90
12119;DHT22;6123;48.864;9.200;2024-02-16T04:52:59;10.30;99.90
12119;DHT22;6123;48.864;9.200;2024-02-16T04:55:25;10.30;99.90
12119;DHT22;6123;48.864;9.200;2024-02-16T04:57:50;10.20;99.90
12119;DHT22;6123;48.864;9.200;2024-02-16T05:00:16;10.20;99.90
12119;DHT22;6123;48.864;9.200;2024-02-16T05:02:42;10.20;99.90
12119;DHT22;6123;48.864;9.200;2024-02-16T05:05:07;10.20;99.90
12119;DHT22;6123;48.864;9.200;2024-02-16T05:07:33;10.20;99.90
12119;DHT22;6123;48.864;9.200;2024-02-16T05:10:01;10.20;99.90
12119;DHT22;6123;48.864;9.200;2024-02-16T05:12:27;10.20;99.90
12119;DHT22;6123;48.864;9.200;2024-02-16T05:14:52;10.20;99.90
12119;DHT22;6123;48.864;9.200;2024-02-16T05:17:19;10.10;99.90
12119;DHT22;6123;48.864;9.200;2024-02-16T05:19:46;10.10;99.90
12119;DHT22;6123;48.864;9.200;2024-02-16T05:22:11;10.10;99.90
12119;DHT22;6123;48.864;9.200;2024-02-16T05:24:37;10.10;99.90
12119;DHT22;6123;48.864;9.200;2024-02-16T05:27:03;10.10;99.90
12119;DHT22;6123;48.864;9.200;2024-02-16T05:29:28;10.10;99.90
12119;DHT22;6123;48.864;9.200;2024-02-16T05:31:54;10.00;99.90
12119;DHT22;6123;48.864;9.200;2024-02-16T05:34:19;10.10;99.90
12119;DHT22;6123;48.864;9.200;2024-02-16T05:36:45;10.10;99.90
12119;DHT22;6123;48.864;9.200;2024-02-16T05:39:11;10.10;99.90
12119;DHT22;6123;48.864;9.200;2024-02-16T05:41:49;10.10;99.90
12119;DHT22;6123;48.864;9.200;2024-02-16T05:44:15;10.10;99.90
12119;DHT22;6123;48.864;9.200;2024-02-16T05:46:40;10.20;99.90
12119;DHT22;6123;48.864;9.200;2024-02-16T05:49:07;10.20;99.90
12119;DHT22;6123;48.864;9.200;2024-02-16T05:51:35;10.20;99.90
12119;DHT22;6123;48.864;9.200;2024-02-16T05:54:02;10.20;99.90
12119;DHT22;6123;48.864;9.200;2024-02-16T05:56:27;10.10;99.90
12119;DHT22;6123;48.864;9.200;2024-02-16T05:58:54;10.10;99.90
12119;DHT22;6123;48.864;9.200;2024-02-16T06:01:19;10.10;99.90
12119;DHT22;6123;48.864;9.200;2024-02-16T06:03:45;10.10;99.90
12119;DHT22;6123;48.864;9.200;2024-02-16T06:06:10;10.10;99.90
12119;DHT22;6123;48.864;9.200;2024-02-16T06:08:36;10.10;99.90
12119;DHT22;6123;48.864;9.200;2024-02-16T06:11:02;10.10;99.90
12119;DHT22;6123;48.864;9.200;2024-02-16T06:13:27;10.10;99.90
12119;DHT22;6123;48.864;9.200;2024-02-16T06:15:55;10.10;99.90
12119;DHT22;6123;48.864;9.200;2024-02-16T06:18:20;10.00;99.90
12119;DHT22;6123;48.864;9.200;2024-02-16T06:20:46;10.00;99.90
12119;DHT22;6123;48.864;9.200;2024-02-16T06:23:11;10.10;99.90
12119;DHT22;6123;48.864;9.200;2024-02-16T06:25:37;10.10;99.90
12119;DHT22;6123;48.864;9.200;2024-02-16T06:28:03;10.10;99.90
12119;DHT22;6123;48.864;9.200;2024-02-16T06:30:30;10.20;99.90
12119;DHT22;6123;48.864;9.200;2024-02-16T06:32:55;10.10;99.90
12119;DHT22;6123;48.864;9.200;2024-02-16T06:35:21;10.10;99.90
12119;DHT22;6123;48.864;9.200;2024-02-16T06:37:46;10.10;99.90
12119;DHT22;6123;48.864;9.200;2024-02-16T06:40:12;10.10;99.90
12119;DHT22;6123;48.864;9.200;2024-02-16T06:42:38;10.00;99.90
12119;DHT22;6123;48.864;9.200;2024-02-16T06:45:04;10.00;99.90
12119;DHT22;6123;48.864;9.200;2024-02-16T06:47:34;9.90;99.90
12119;DHT22;6123;48.864;9.200;2024-02-16T06:49:59;10.00;99.90
12119;DHT22;6123;48.864;9.200;2024-02-16T06:52:25;10.10;99.90
12119;DHT22;6123;48.864;9.200;2024-02-16T06:54:50;10.10;99.90
12119;DHT22;6123;48.864;9.200;2024-02-16T06:57:17;10.10;99.90
12119;DHT22;6123;48.864;9.200;2024-02-16T06:59:42;10.10;99.90
12119;DHT22;6123;48.864;9.200;2024-02-16T07:02:08;10.10;99.90
12119;DHT22;6123;48.864;9.200;2024-02-16T07:04:34;10.10;99.90
12119;DHT22;6123;48.864;9.200;2024-02-16T07:07:00;10.10;99.90
12119;DHT22;6123;48.864;9.200;2024-02-16T07:09:25;10.10;99.90
12119;DHT22;6123;48.864;9.200;2024-02-16T07:11:51;10.10;99.90
12119;DHT22;6123;48.864;9.200;2024-02-16T07:14:18;10.10;99.90
12119;DHT22;6123;48.864;9.200;2024-02-16T07:16:43;10.20;99.90
12119;DHT22;6123;48.864;9.200;2024-02-16T07:19:09;10.30;99.90
12119;DHT22;6123;48.864;9.200;2024-02-16T07:21:35;10.30;99.90
12119;DHT22;6123;48.864;9.200;2024-02-16T07:24:00;10.40;99.90
12119;DHT22;6123;48.864;9.200;2024-02-16T07:26:27;10.50;99.90
12119;DHT22;6123;48.864;9.200;2024-02-16T07:28:52;10.60;99.90
12119;DHT22;6123;48.864;9.200;2024-02-16T07:31:18;10.70;99.90
12119;DHT22;6123;48.864;9.200;2024-02-16T07:33:44;10.70;99.90
12119;DHT22;6123;48.864;9.200;2024-02-16T07:36:09;10.70;99.90
12119;DHT22;6123;48.864;9.200;2024-02-16T07:38:35;10.70;99.90
12119;DHT22;6123;48.864;9.200;2024-02-16T07:41:01;10.70;99.90
12119;DHT22;6123;48.864;9.200;2024-02-16T07:43:27;10.70;99.90
12119;DHT22;6123;48.864;9.200;2024-02-16T07:45:53;10.70;99.90
12119;DHT22;6123;48.864;9.200;2024-02-16T07:48:22;10.70;99.90
12119;DHT22;6123;48.864;9.200;2024-02-16T07:50:48;10.70;99.90
12119;DHT22;6123;48.864;9.200;2024-02-16T07:53:15;10.70;99.90
12119;DHT22;6123;48.864;9.200;2024-02-16T07:55:41;10.70;99.90
12119;DHT22;6123;48.864;9.200;2024-02-16T07:58:07;10.70;99.90
12119;DHT22;6123;48.864;9.200;2024-02-16T08:00:32;10.80;99.90
12119;DHT22;6123;48.864;9.200;2024-02-16T08:02:58;10.80;99.90
12119;DHT22;6123;48.864;9.200;2024-02-16T08:05:24;10.80;99.90
12119;DHT22;6123;48.864;9.200;2024-02-16T08:07:52;10.80;99.90
12119;DHT22;6123;48.864;9.200;2024-02-16T08:10:21;10.80;99.90
12119;DHT22;6123;48.864;9.200;2024-02-16T08:12:47;10.90;99.90
12119;DHT22;6123;48.864;9.200;2024-02-16T08:15:13;11.00;99.90
12119;DHT22;6123;48.864;9.200;2024-02-16T08:17:40;11.20;99.90
12119;DHT22;6123;48.864;9.200;2024-02-16T08:20:06;11.60;99.90
12119;DHT22;6123;48.864;9.200;2024-02-16T08:22:32;12.00;99.90
12119;DHT22;6123;48.864;9.200;2024-02-16T08:24:58;12.40;99.90
12119;DHT22;6123;48.864;9.200;2024-02-16T08:27:24;12.60;99.90
12119;DHT22;6123;48.864;9.200;2024-02-16T08:29:50;12.90;99.90
12119;DHT22;6123;48.864;9.200;2024-02-16T08:32:17;13.10;99.90
12119;DHT22;6123;48.864;9.200;2024-02-16T08:34:43;13.30;99.90
12119;DHT22;6123;48.864;9.200;2024-02-16T08:37:09;13.60;99.90
12119;DHT22;6123;48.864;9.200;2024-02-16T08:39:37;13.50;99.90
12119;DHT22;6123;48.864;9.200;2024-02-16T08:42:03;13.30;99.90
12119;DHT22;6123;48.864;9.200;2024-02-16T08:44:29;13.40;99.90
12119;DHT22;6123;48.864;9.200;2024-02-16T08:46:55;13.50;99.90
12119;DHT22;6123;48.864;9.200;2024-02-16T08:49:21;13.50;99.90
12119;DHT22;6123;48.864;9.200;2024-02-16T08:51:47;13.40;99.90
12119;DHT22;6123;48.864;9.200;2024-02-16T08:54:13;13.40;99.90
12119;DHT22;6123;48.864;9.200;2024-02-16T08:56:39;13.40;99.90
12119;DHT22;6123;48.864;9.200;2024-02-16T08:59:05;13.40;99.90
12119;DHT22;6123;48.864;9.200;2024-02-16T09:01:34;13.60;99.90
12119;DHT22;6123;48.864;9.200;2024-02-16T09:04:00;13.80;99.90
12119;DHT22;6123;48.864;9.200;2024-02-16T09:06:27;14.30;99.90
12119;DHT22;6123;48.864;9.200;2024-02-16T09:08:53;14.50;99.90
12119;DHT22;6123;48.864;9.200;2024-02-16T09:11:19;14.40;99.90
12119;DHT22;6123;48.864;9.200;2024-02-16T09:13:45;14.50;99.90
12119;DHT22;6123;48.864;9.200;2024-02-16T09:16:10;14.80;99.90
12119;DHT22;6123;48.864;9.200;2024-02-16T09:18:36;14.90;99.90
12119;DHT22;6123;48.864;9.200;2024-02-16T09:21:05;14.80;99.90
12119;DHT22;6123;48.864;9.200;2024-02-16T09:23:32;14.70;99.90
12119;DHT22;6123;48.864;9.200;2024-02-16T09:25:58;15.00;99.90
12119;DHT22;6123;48.864;9.200;2024-02-16T09:28:25;15.20;99.90
12119;DHT22;6123;48.864;9.200;2024-02-16T09:30:51;15.70;99.90
12119;DHT22;6123;48.864;9.200;2024-02-16T09:33:16;15.80;98.80
12119;DHT22;6123;48.864;9.200;2024-02-16T09:35:42;16.30;98.50
12119;DHT22;6123;48.864;9.200;2024-02-16T09:38:08;16.40;96.90
12119;DHT22;6123;48.864;9.200;2024-02-16T09:40:36;16.10;98.60
12119;DHT22;6123;48.864;9.200;2024-02-16T09:43:01;16.10;98.70
12119;DHT22;6123;48.864;9.200;2024-02-16T09:45:29;16.00;98.00
12119;DHT22;6123;48.864;9.200;2024-02-16T09:47:54;16.10;98.00
12119;DHT22;6123;48.864;9.200;2024-02-16T09:50:21;16.20;98.50
12119;DHT22;6123;48.864;9.200;2024-02-16T09:52:48;16.30;97.60
12119;DHT22;6123;48.864;9.200;2024-02-16T09:55:16;16.10;96.40
12119;DHT22;6123;48.864;9.200;2024-02-16T09:57:42;15.90;98.60
12119;DHT22;6123;48.864;9.200;2024-02-16T10:00:09;15.90;98.60
12119;DHT22;6123;48.864;9.200;2024-02-16T10:02:42;16.00;99.40
12119;DHT22;6123;48.864;9.200;2024-02-16T10:05:15;16.10;97.40
12119;DHT22;6123;48.864;9.200;2024-02-16T10:07:42;16.30;97.30
12119;DHT22;6123;48.864;9.200;2024-02-16T10:10:27;16.40;96.70
12119;DHT22;6123;48.864;9.200;2024-02-16T10:13:04;16.50;97.60
12119;DHT22;6123;48.864;9.200;2024-02-16T10:15:31;16.60;97.60
12119;DHT22;6123;48.864;9.200;2024-02-16T10:18:04;16.70;96.30
12119;DHT22;6123;48.864;9.200;2024-02-16T10:20:31;16.80;95.60
12119;DHT22;6123;48.864;9.200;2024-02-16T10:25:30;17.20;93.90
12119;DHT22;6123;48.864;9.200;2024-02-16T10:27:57;17.10;94.60
12119;DHT22;6123;48.864;9.200;2024-02-16T10:30:29;17.30;93.20
12119;DHT22;6123;48.864;9.200;2024-02-16T10:32:57;17.50;92.50
12119;DHT22;6123;48.864;9.200;2024-02-16T10:35:25;17.70;91.90
12119;DHT22;6123;48.864;9.200;2024-02-16T10:37:52;17.80;91.40
12119;DHT22;6123;48.864;9.200;2024-02-16T10:40:19;17.90;90.40
12119;DHT22;6123;48.864;9.200;2024-02-16T10:42:46;17.60;91.30
12119;DHT22;6123;48.864;9.200;2024-02-16T10:45:12;17.50;92.60
12119;DHT22;6123;48.864;9.200;2024-02-16T10:47:39;17.50;91.90
12119;DHT22;6123;48.864;9.200;2024-02-16T10:50:05;17.50;91.30
12119;DHT22;6123;48.864;9.200;2024-02-16T10:52:32;17.30;92.40
12119;DHT22;6123;48.864;9.200;2024-02-16T10:54:58;17.40;93.20
12119;DHT22;6123;48.864;9.200;2024-02-16T10:57:24;17.40;93.90
12119;DHT22;6123;48.864;9.200;2024-02-16T10:59:52;17.50;94.50
12119;DHT22;6123;48.864;9.200;2024-02-16T11:02:19;17.60;91.50
12119;DHT22;6123;48.864;9.200;2024-02-16T11:04:46;17.30;92.80
12119;DHT22;6123;48.864;9.200;2024-02-16T11:07:17;17.20;87.50
12119;DHT22;6123;48.864;9.200;2024-02-16T11:09:44;17.20;90.40
12119;DHT22;6123;48.864;9.200;2024-02-16T11:12:12;17.00;88.10
12119;DHT22;6123;48.864;9.200;2024-02-16T11:14:43;17.10;88.10
12119;DHT22;6123;48.864;9.200;2024-02-16T11:17:11;17.00;83.00
12119;DHT22;6123;48.864;9.200;2024-02-16T11:19:37;16.90;83.80
12119;DHT22;6123;48.864;9.200;2024-02-16T11:22:06;16.90;86.20
12119;DHT22;6123;48.864;9.200;2024-02-16T11:24:36;17.20;87.30
12119;DHT22;6123;48.864;9.200;2024-02-16T11:27:03;17.50;86.00
12119;DHT22;6123;48.864;9.200;2024-02-16T11:29:38;17.70;84.30
12119;DHT22;6123;48.864;9.200;2024-02-16T11:32:05;17.60;81.20
12119;DHT22;6123;48.864;9.200;2024-02-16T11:34:32;17.60;81.00
12119;DHT22;6123;48.864;9.200;2024-02-16T11:37:00;17.80;81.00
12119;DHT22;6123;48.864;9.200;2024-02-16T11:39:27;17.60;80.00
12119;DHT22;6123;48.864;9.200;2024-02-16T11:42:06;17.60;78.60
12119;DHT22;6123;48.864;9.200;2024-02-16T11:44:33;17.20;80.80
12119;DHT22;6123;48.864;9.200;2024-02-16T11:46:59;17.30;83.20
12119;DHT22;6123;48.864;9.200;2024-02-16T11:49:26;17.50;84.10
12119;DHT22;6123;48.864;9.200;2024-02-16T11:51:51;17.70;85.80
12119;DHT22;6123;48.864;9.200;2024-02-16T11:54:18;17.60;84.70
12119;DHT22;6123;48.864;9.200;2024-02-16T11:56:46;17.60;85.20
12119;DHT22;6123;48.864;9.200;2024-02-16T11:59:15;17.50;87.80
12119;DHT22;6123;48.864;9.200;2024-02-16T12:01:55;17.50;86.50
12119;DHT22;6123;48.864;9.200;2024-02-16T12:04:28;17.60;89.00
12119;DHT22;6123;48.864;9.200;2024-02-16T12:07:02;17.60;88.40
12119;DHT22;6123;48.864;9.200;2024-02-16T12:09:28;17.60;88.40
12119;DHT22;6123;48.864;9.200;2024-02-16T12:11:54;17.60;90.00
12119;DHT22;6123;48.864;9.200;2024-02-16T12:14:24;17.50;90.60
12119;DHT22;6123;48.864;9.200;2024-02-16T12:16:55;17.50;91.50
12119;DHT22;6123;48.864;9.200;2024-02-16T12:19:22;17.30;91.90
12119;DHT22;6123;48.864;9.200;2024-02-16T12:21:57;17.20;92.50
12119;DHT22;6123;48.864;9.200;2024-02-16T12:24:23;17.20;92.30
12119;DHT22;6123;48.864;9.200;2024-02-16T12:26:49;17.40;92.90
12119;DHT22;6123;48.864;9.200;2024-02-16T12:29:15;17.30;93.00
12119;DHT22;6123;48.864;9.200;2024-02-16T12:31:42;17.40;94.40
12119;DHT22;6123;48.864;9.200;2024-02-16T12:34:09;17.30;94.70
12119;DHT22;6123;48.864;9.200;2024-02-16T12:36:36;17.20;96.50
12119;DHT22;6123;48.864;9.200;2024-02-16T12:39:03;17.10;96.90
12119;DHT22;6123;48.864;9.200;2024-02-16T12:41:33;17.10;98.90
12119;DHT22;6123;48.864;9.200;2024-02-16T12:43:59;17.00;99.30
12119;DHT22;6123;48.864;9.200;2024-02-16T12:46:25;17.00;98.50
12119;DHT22;6123;48.864;9.200;2024-02-16T12:48:51;17.00;98.80
12119;DHT22;6123;48.864;9.200;2024-02-16T12:51:18;17.00;99.10
12119;DHT22;6123;48.864;9.200;2024-02-16T12:53:43;17.10;99.10
12119;DHT22;6123;48.864;9.200;2024-02-16T12:56:10;17.00;99.90
12119;DHT22;6123;48.864;9.200;2024-02-16T12:58:36;17.00;99.90
12119;DHT22;6123;48.864;9.200;2024-02-16T13:01:03;17.10;99.20
12119;DHT22;6123;48.864;9.200;2024-02-16T13:03:28;17.20;99.70
12119;DHT22;6123;48.864;9.200;2024-02-16T13:05:54;17.20;98.90
12119;DHT22;6123;48.864;9.200;2024-02-16T13:08:19;17.30;99.30
12119;DHT22;6123;48.864;9.200;2024-02-16T13:10:45;17.40;99.30
12119;DHT22;6123;48.864;9.200;2024-02-16T13:13:11;17.50;99.00
12119;DHT22;6123;48.864;9.200;2024-02-16T13:15:36;17.30;99.70
12119;DHT22;6123;48.864;9.200;2024-02-16T13:18:02;17.50;99.40
12119;DHT22;6123;48.864;9.200;2024-02-16T13:20:27;17.60;99.40
12119;DHT22;6123;48.864;9.200;2024-02-16T13:22:53;17.70;98.90
12119;DHT22;6123;48.864;9.200;2024-02-16T13:25:19;17.70;98.40
12119;DHT22;6123;48.864;9.200;2024-02-16T13:27:45;17.70;98.80
12119;DHT22;6123;48.864;9.200;2024-02-16T13:30:10;17.80;99.00
12119;DHT22;6123;48.864;9.200;2024-02-16T13:32:36;17.80;98.80
12119;DHT22;6123;48.864;9.200;2024-02-16T13:35:05;17.80;98.10
12119;DHT22;6123;48.864;9.200;2024-02-16T13:37:31;17.70;99.10
12119;DHT22;6123;48.864;9.200;2024-02-16T13:39:56;17.70;99.20
12119;DHT22;6123;48.864;9.200;2024-02-16T13:42:22;17.80;99.90
12119;DHT22;6123;48.864;9.200;2024-02-16T13:44:48;17.80;99.80
12119;DHT22;6123;48.864;9.200;2024-02-16T13:47:13;17.70;99.90
12119;DHT22;6123;48.864;9.200;2024-02-16T13:49:39;17.90;99.90
12119;DHT22;6123;48.864;9.200;2024-02-16T13:52:05;18.00;99.90
12119;DHT22;6123;48.864;9.200;2024-02-16T13:54:30;18.20;99.90
12119;DHT22;6123;48.864;9.200;2024-02-16T13:56:56;17.90;99.40
12119;DHT22;6123;48.864;9.200;2024-02-16T13:59:21;17.40;99.90
12119;DHT22;6123;48.864;9.200;2024-02-16T14:01:48;17.20;99.90
12119;DHT22;6123;48.864;9.200;2024-02-16T14:04:14;17.20;99.90
12119;DHT22;6123;48.864;9.200;2024-02-16T14:06:40;17.10;99.90
12119;DHT22;6123;48.864;9.200;2024-02-16T14:09:06;17.10;99.90
12119;DHT22;6123;48.864;9.200;2024-02-16T14:11:35;17.10;99.90
12119;DHT22;6123;48.864;9.200;2024-02-16T14:14:01;17.00;99.90
12119;DHT22;6123;48.864;9.200;2024-02-16T14:16:27;16.80;99.90
12119;DHT22;6123;48.864;9.200;2024-02-16T14:18:53;16.90;99.90
12119;DHT22;6123;48.864;9.200;2024-02-16T14:21:18;16.70;99.90
12119;DHT22;6123;48.864;9.200;2024-02-16T14:23:44;16.70;99.90
12119;DHT22;6123;48.864;9.200;2024-02-16T14:26:09;16.70;99.90
12119;DHT22;6123;48.864;9.200;2024-02-16T14:28:35;16.70;99.90
12119;DHT22;6123;48.864;9.200;2024-02-16T14:31:01;16.70;99.90
12119;DHT22;6123;48.864;9.200;2024-02-16T14:33:28;16.80;99.90
12119;DHT22;6123;48.864;9.200;2024-02-16T14:35:53;16.70;99.90
12119;DHT22;6123;48.864;9.200;2024-02-16T14:38:19;16.70;99.90
12119;DHT22;6123;48.864;9.200;2024-02-16T14:40:44;16.80;99.90
12119;DHT22;6123;48.864;9.200;2024-02-16T14:43:10;16.70;99.90
12119;DHT22;6123;48.864;9.200;2024-02-16T14:45:35;16.70;99.90
12119;DHT22;6123;48.864;9.200;2024-02-16T14:48:04;16.70;99.90
12119;DHT22;6123;48.864;9.200;2024-02-16T14:50:30;16.60;99.90
12119;DHT22;6123;48.864;9.200;2024-02-16T14:52:56;16.60;99.90
12119;DHT22;6123;48.864;9.200;2024-02-16T14:55:21;16.60;99.90
12119;DHT22;6123;48.864;9.200;2024-02-16T14:57:47;16.50;99.90
12119;DHT22;6123;48.864;9.200;2024-02-16T15:00:13;16.50;99.90
12119;DHT22;6123;48.864;9.200;2024-02-16T15:02:40;16.50;99.90
12119;DHT22;6123;48.864;9.200;2024-02-16T15:05:07;16.40;99.90
12119;DHT22;6123;48.864;9.200;2024-02-16T15:07:33;16.30;99.90
12119;DHT22;6123;48.864;9.200;2024-02-16T15:10:00;16.20;99.90
12119;DHT22;6123;48.864;9.200;2024-02-16T15:12:25;16.30;99.90
12119;DHT22;6123;48.864;9.200;2024-02-16T15:14:51;16.40;99.90
12119;DHT22;6123;48.864;9.200;2024-02-16T15:17:17;16.40;99.90
12119;DHT22;6123;48.864;9.200;2024-02-16T15:19:42;16.40;99.90
12119;DHT22;6123;48.864;9.200;2024-02-16T15:22:08;16.40;99.90
12119;DHT22;6123;48.864;9.200;2024-02-16T15:24:34;16.50;99.90
12119;DHT22;6123;48.864;9.200;2024-02-16T15:27:00;16.60;99.90
12119;DHT22;6123;48.864;9.200;2024-02-16T15:29:27;16.50;99.90
12119;DHT22;6123;48.864;9.200;2024-02-16T15:31:53;16.40;99.90
12119;DHT22;6123;48.864;9.200;2024-02-16T15:34:20;16.30;99.90
12119;DHT22;6123;48.864;9.200;2024-02-16T15:36:46;16.40;99.90
12119;DHT22;6123;48.864;9.200;2024-02-16T15:39:11;16.40;99.90
12119;DHT22;6123;48.864;9.200;2024-02-16T15:41:37;16.40;99.90